sensor_id;sensor_type;location;lat;lon;timestamp;P1;durP1;ratioP1;P2;durP2;ratioP2
64029;SDS011;50277;52.064;4.492;2022-12-29T00:01:35;2.13;;;1.92;;
64029;SDS011;50277;52.064;4.492;2022-12-29T00:04:00;2.67;;;2.05;;
64029;SDS011;50277;52.064;4.492;2022-12-29T00:06:26;4.18;;;2.10;;
64029;SDS011;50277;52.064;4.492;2022-12-29T00:08:52;2.28;;;1.80;;
64029;SDS011;50277;52.064;4.492;2022-12-29T00:11:18;3.15;;;1.98;;
64029;SDS011;50277;52.064;4.492;2022-12-29T00:13:53;2.25;;;1.73;;
64029;SDS011;50277;52.064;4.492;2022-12-29T00:16:37;2.53;;;1.65;;
64029;SDS011;50277;52.064;4.492;2022-12-29T00:19:05;2.03;;;1.55;;
64029;SDS011;50277;52.064;4.492;2022-12-29T00:21:30;2.42;;;1.90;;
64029;SDS011;50277;52.064;4.492;2022-12-29T00:24:15;3.05;;;1.52;;
64029;SDS011;50277;52.064;4.492;2022-12-29T00:29:50;4.18;;;1.63;;
64029;SDS011;50277;52.064;4.492;2022-12-29T00:32:35;2.03;;;1.50;;
64029;SDS011;50277;52.064;4.492;2022-12-29T00:35:24;3.10;;;2.05;;
64029;SDS011;50277;52.064;4.492;2022-12-29T00:37:52;3.17;;;1.65;;
64029;SDS011;50277;52.064;4.492;2022-12-29T00:40:37;2.17;;;1.40;;
64029;SDS011;50277;52.064;4.492;2022-12-29T00:43:21;5.05;;;1.85;;
64029;SDS011;50277;52.064;4.492;2022-12-29T00:46:05;2.92;;;1.58;;
64029;SDS011;50277;52.064;4.492;2022-12-29T00:48:30;2.45;;;1.35;;
64029;SDS011;50277;52.064;4.492;2022-12-29T00:51:14;2.80;;;1.50;;
64029;SDS011;50277;52.064;4.492;2022-12-29T00:53:40;3.20;;;1.55;;
64029;SDS011;50277;52.064;4.492;2022-12-29T00:56:05;3.45;;;1.90;;
64029;SDS011;50277;52.064;4.492;2022-12-29T00:58:31;4.15;;;1.77;;
64029;SDS011;50277;52.064;4.492;2022-12-29T01:01:06;1.40;;;1.30;;
64029;SDS011;50277;52.064;4.492;2022-12-29T01:03:35;2.15;;;1.52;;
64029;SDS011;50277;52.064;4.492;2022-12-29T01:06:02;3.95;;;1.80;;
64029;SDS011;50277;52.064;4.492;2022-12-29T01:08:28;1.13;;;1.13;;
64029;SDS011;50277;52.064;4.492;2022-12-29T01:11:01;1.27;;;1.20;;
64029;SDS011;50277;52.064;4.492;2022-12-29T01:13:27;1.90;;;1.20;;
64029;SDS011;50277;52.064;4.492;2022-12-29T01:15:53;1.05;;;0.95;;
64029;SDS011;50277;52.064;4.492;2022-12-29T01:18:19;1.10;;;1.00;;
64029;SDS011;50277;52.064;4.492;2022-12-29T01:20:45;1.73;;;1.10;;
64029;SDS011;50277;52.064;4.492;2022-12-29T01:23:10;2.30;;;1.38;;
64029;SDS011;50277;52.064;4.492;2022-12-29T01:25:35;4.00;;;1.45;;
64029;SDS011;50277;52.064;4.492;2022-12-29T01:28:01;2.38;;;1.23;;
64029;SDS011;50277;52.064;4.492;2022-12-29T01:30:26;3.15;;;1.30;;
64029;SDS011;50277;52.064;4.492;2022-12-29T01:32:51;3.40;;;1.30;;
64029;SDS011;50277;52.064;4.492;2022-12-29T01:35:17;1.88;;;1.20;;
64029;SDS011;50277;52.064;4.492;2022-12-29T01:37:42;1.92;;;1.30;;
64029;SDS011;50277;52.064;4.492;2022-12-29T01:40:07;1.45;;;1.20;;
64029;SDS011;50277;52.064;4.492;2022-12-29T01:42:33;1.73;;;1.50;;
64029;SDS011;50277;52.064;4.492;2022-12-29T01:45:02;4.18;;;1.30;;
64029;SDS011;50277;52.064;4.492;2022-12-29T01:47:41;2.25;;;1.30;;
64029;SDS011;50277;52.064;4.492;2022-12-29T01:50:28;4.63;;;1.45;;
64029;SDS011;50277;52.064;4.492;2022-12-29T01:53:00;4.10;;;1.63;;
64029;SDS011;50277;52.064;4.492;2022-12-29T01:55:28;4.10;;;1.20;;
64029;SDS011;50277;52.064;4.492;2022-12-29T01:57:54;1.58;;;1.17;;
64029;SDS011;50277;52.064;4.492;2022-12-29T02:00:22;4.63;;;1.87;;
64029;SDS011;50277;52.064;4.492;2022-12-29T02:02:49;3.72;;;1.30;;
64029;SDS011;50277;52.064;4.492;2022-12-29T02:05:21;4.05;;;1.48;;
64029;SDS011;50277;52.064;4.492;2022-12-29T02:07:59;4.88;;;1.50;;
64029;SDS011;50277;52.064;4.492;2022-12-29T02:10:26;6.13;;;1.60;;
64029;SDS011;50277;52.064;4.492;2022-12-29T02:12:53;8.18;;;1.40;;
64029;SDS011;50277;52.064;4.492;2022-12-29T02:15:19;7.68;;;1.45;;
64029;SDS011;50277;52.064;4.492;2022-12-29T02:23:42;3.72;;;1.35;;
64029;SDS011;50277;52.064;4.492;2022-12-29T02:26:16;6.88;;;1.60;;
64029;SDS011;50277;52.064;4.492;2022-12-29T02:33:55;5.78;;;1.27;;
64029;SDS011;50277;52.064;4.492;2022-12-29T02:45:05;5.10;;;1.75;;
64029;SDS011;50277;52.064;4.492;2022-12-29T02:47:45;6.43;;;1.50;;
64029;SDS011;50277;52.064;4.492;2022-12-29T02:52:42;5.28;;;1.05;;
64029;SDS011;50277;52.064;4.492;2022-12-29T02:55:36;8.35;;;1.75;;
64029;SDS011;50277;52.064;4.492;2022-12-29T02:58:06;10.00;;;2.20;;
64029;SDS011;50277;52.064;4.492;2022-12-29T03:00:39;10.85;;;1.92;;
64029;SDS011;50277;52.064;4.492;2022-12-29T03:03:19;10.07;;;2.22;;
64029;SDS011;50277;52.064;4.492;2022-12-29T03:08:48;17.60;;;2.65;;
64029;SDS011;50277;52.064;4.492;2022-12-29T03:11:24;12.40;;;2.15;;
64029;SDS011;50277;52.064;4.492;2022-12-29T03:14:17;12.90;;;3.17;;
64029;SDS011;50277;52.064;4.492;2022-12-29T03:20:14;12.40;;;2.42;;
64029;SDS011;50277;52.064;4.492;2022-12-29T03:22:44;14.68;;;2.60;;
64029;SDS011;50277;52.064;4.492;2022-12-29T03:25:18;14.10;;;2.53;;
64029;SDS011;50277;52.064;4.492;2022-12-29T03:27:52;14.05;;;3.45;;
64029;SDS011;50277;52.064;4.492;2022-12-29T03:30:20;9.45;;;2.47;;
64029;SDS011;50277;52.064;4.492;2022-12-29T03:32:47;12.60;;;2.60;;
64029;SDS011;50277;52.064;4.492;2022-12-29T03:35:15;13.80;;;1.98;;
64029;SDS011;50277;52.064;4.492;2022-12-29T03:37:43;12.80;;;2.35;;
64029;SDS011;50277;52.064;4.492;2022-12-29T03:40:15;7.53;;;2.47;;
64029;SDS011;50277;52.064;4.492;2022-12-29T03:42:40;8.65;;;1.77;;
64029;SDS011;50277;52.064;4.492;2022-12-29T03:45:06;8.02;;;2.35;;
64029;SDS011;50277;52.064;4.492;2022-12-29T03:47:32;4.85;;;1.95;;
64029;SDS011;50277;52.064;4.492;2022-12-29T03:49:58;11.80;;;1.73;;
64029;SDS011;50277;52.064;4.492;2022-12-29T03:52:23;6.38;;;1.70;;
64029;SDS011;50277;52.064;4.492;2022-12-29T03:54:48;10.10;;;3.35;;
64029;SDS011;50277;52.064;4.492;2022-12-29T03:57:14;6.63;;;1.88;;
64029;SDS011;50277;52.064;4.492;2022-12-29T03:59:39;9.80;;;2.08;;
64029;SDS011;50277;52.064;4.492;2022-12-29T04:02:04;10.57;;;1.58;;
64029;SDS011;50277;52.064;4.492;2022-12-29T04:04:30;8.65;;;2.15;;
64029;SDS011;50277;52.064;4.492;2022-12-29T04:06:55;14.50;;;2.47;;
64029;SDS011;50277;52.064;4.492;2022-12-29T04:09:20;10.35;;;2.22;;
64029;SDS011;50277;52.064;4.492;2022-12-29T04:11:46;8.38;;;2.03;;
64029;SDS011;50277;52.064;4.492;2022-12-29T04:14:11;14.88;;;2.33;;
64029;SDS011;50277;52.064;4.492;2022-12-29T04:16:36;12.02;;;2.60;;
64029;SDS011;50277;52.064;4.492;2022-12-29T04:19:03;9.48;;;1.88;;
64029;SDS011;50277;52.064;4.492;2022-12-29T04:21:29;13.88;;;2.55;;
64029;SDS011;50277;52.064;4.492;2022-12-29T04:23:55;10.02;;;2.22;;
64029;SDS011;50277;52.064;4.492;2022-12-29T04:26:20;13.00;;;2.70;;
64029;SDS011;50277;52.064;4.492;2022-12-29T04:28:45;16.08;;;3.03;;
64029;SDS011;50277;52.064;4.492;2022-12-29T04:31:10;10.50;;;1.90;;
64029;SDS011;50277;52.064;4.492;2022-12-29T04:33:36;15.25;;;2.60;;
64029;SDS011;50277;52.064;4.492;2022-12-29T04:36:01;23.45;;;3.30;;
64029;SDS011;50277;52.064;4.492;2022-12-29T04:38:26;11.55;;;2.55;;
64029;SDS011;50277;52.064;4.492;2022-12-29T04:40:52;11.50;;;2.50;;
64029;SDS011;50277;52.064;4.492;2022-12-29T04:43:18;9.27;;;2.28;;
64029;SDS011;50277;52.064;4.492;2022-12-29T04:45:47;12.15;;;2.90;;
64029;SDS011;50277;52.064;4.492;2022-12-29T04:48:13;9.95;;;2.17;;
64029;SDS011;50277;52.064;4.492;2022-12-29T04:50:39;10.07;;;2.30;;
64029;SDS011;50277;52.064;4.492;2022-12-29T04:53:05;9.52;;;2.15;;
64029;SDS011;50277;52.064;4.492;2022-12-29T04:55:30;8.73;;;1.90;;
64029;SDS011;50277;52.064;4.492;2022-12-29T04:57:55;12.20;;;2.00;;
64029;SDS011;50277;52.064;4.492;2022-12-29T05:00:21;11.60;;;2.63;;
64029;SDS011;50277;52.064;4.492;2022-12-29T05:02:46;14.93;;;2.40;;
64029;SDS011;50277;52.064;4.492;2022-12-29T05:05:12;13.40;;;2.92;;
64029;SDS011;50277;52.064;4.492;2022-12-29T05:07:37;11.63;;;2.28;;
64029;SDS011;50277;52.064;4.492;2022-12-29T05:10:03;11.82;;;2.10;;
64029;SDS011;50277;52.064;4.492;2022-12-29T05:12:32;13.60;;;2.40;;
64029;SDS011;50277;52.064;4.492;2022-12-29T05:14:58;10.45;;;2.40;;
64029;SDS011;50277;52.064;4.492;2022-12-29T05:17:24;13.63;;;2.40;;
64029;SDS011;50277;52.064;4.492;2022-12-29T05:19:49;10.48;;;2.40;;
64029;SDS011;50277;52.064;4.492;2022-12-29T05:22:15;17.30;;;2.50;;
64029;SDS011;50277;52.064;4.492;2022-12-29T05:24:40;13.48;;;2.83;;
64029;SDS011;50277;52.064;4.492;2022-12-29T05:27:05;13.48;;;3.28;;
64029;SDS011;50277;52.064;4.492;2022-12-29T05:29:31;16.50;;;2.25;;
64029;SDS011;50277;52.064;4.492;2022-12-29T05:31:56;20.20;;;3.35;;
64029;SDS011;50277;52.064;4.492;2022-12-29T05:34:21;17.77;;;2.78;;
64029;SDS011;50277;52.064;4.492;2022-12-29T05:36:47;17.00;;;3.00;;
64029;SDS011;50277;52.064;4.492;2022-12-29T05:39:12;12.88;;;2.78;;
64029;SDS011;50277;52.064;4.492;2022-12-29T05:41:37;13.95;;;2.45;;
64029;SDS011;50277;52.064;4.492;2022-12-29T05:44:03;19.75;;;3.03;;
64029;SDS011;50277;52.064;4.492;2022-12-29T05:46:28;18.25;;;2.67;;
64029;SDS011;50277;52.064;4.492;2022-12-29T05:48:54;17.85;;;3.33;;
64029;SDS011;50277;52.064;4.492;2022-12-29T05:51:19;13.10;;;2.33;;
64029;SDS011;50277;52.064;4.492;2022-12-29T05:53:44;17.08;;;2.80;;
64029;SDS011;50277;52.064;4.492;2022-12-29T05:56:10;23.55;;;3.28;;
64029;SDS011;50277;52.064;4.492;2022-12-29T05:58:35;19.10;;;2.90;;
64029;SDS011;50277;52.064;4.492;2022-12-29T06:01:00;17.83;;;3.67;;
64029;SDS011;50277;52.064;4.492;2022-12-29T06:03:25;15.75;;;3.20;;
64029;SDS011;50277;52.064;4.492;2022-12-29T06:05:51;16.02;;;3.55;;
64029;SDS011;50277;52.064;4.492;2022-12-29T06:08:16;17.95;;;2.92;;
64029;SDS011;50277;52.064;4.492;2022-12-29T06:10:41;19.50;;;3.30;;
64029;SDS011;50277;52.064;4.492;2022-12-29T06:13:07;20.38;;;4.03;;
64029;SDS011;50277;52.064;4.492;2022-12-29T06:15:33;17.92;;;3.22;;
64029;SDS011;50277;52.064;4.492;2022-12-29T06:17:58;23.33;;;2.97;;
64029;SDS011;50277;52.064;4.492;2022-12-29T06:20:23;14.82;;;3.22;;
64029;SDS011;50277;52.064;4.492;2022-12-29T06:22:49;20.50;;;2.95;;
64029;SDS011;50277;52.064;4.492;2022-12-29T06:25:14;17.92;;;3.40;;
64029;SDS011;50277;52.064;4.492;2022-12-29T06:27:40;23.48;;;4.20;;
64029;SDS011;50277;52.064;4.492;2022-12-29T06:30:06;19.55;;;2.90;;
64029;SDS011;50277;52.064;4.492;2022-12-29T06:32:32;17.55;;;3.42;;
64029;SDS011;50277;52.064;4.492;2022-12-29T06:34:57;19.50;;;3.15;;
64029;SDS011;50277;52.064;4.492;2022-12-29T06:37:23;15.85;;;3.17;;
64029;SDS011;50277;52.064;4.492;2022-12-29T06:39:48;20.27;;;3.08;;
64029;SDS011;50277;52.064;4.492;2022-12-29T06:42:13;21.80;;;3.78;;
64029;SDS011;50277;52.064;4.492;2022-12-29T06:44:39;17.70;;;3.60;;
64029;SDS011;50277;52.064;4.492;2022-12-29T06:47:04;15.93;;;3.17;;
64029;SDS011;50277;52.064;4.492;2022-12-29T06:49:29;22.38;;;3.83;;
64029;SDS011;50277;52.064;4.492;2022-12-29T06:51:55;23.23;;;4.25;;
64029;SDS011;50277;52.064;4.492;2022-12-29T06:54:20;26.58;;;4.00;;
64029;SDS011;50277;52.064;4.492;2022-12-29T06:56:45;29.42;;;4.13;;
64029;SDS011;50277;52.064;4.492;2022-12-29T06:59:11;16.58;;;3.13;;
64029;SDS011;50277;52.064;4.492;2022-12-29T07:01:36;19.25;;;3.20;;
64029;SDS011;50277;52.064;4.492;2022-12-29T07:04:02;21.10;;;3.35;;
64029;SDS011;50277;52.064;4.492;2022-12-29T07:06:28;16.35;;;3.58;;
64029;SDS011;50277;52.064;4.492;2022-12-29T07:08:53;18.20;;;2.92;;
64029;SDS011;50277;52.064;4.492;2022-12-29T07:11:20;15.35;;;3.17;;
64029;SDS011;50277;52.064;4.492;2022-12-29T07:13:46;19.98;;;3.63;;
64029;SDS011;50277;52.064;4.492;2022-12-29T07:16:11;15.10;;;3.10;;
64029;SDS011;50277;52.064;4.492;2022-12-29T07:18:37;13.80;;;2.38;;
64029;SDS011;50277;52.064;4.492;2022-12-29T07:21:02;10.60;;;2.40;;
64029;SDS011;50277;52.064;4.492;2022-12-29T07:23:28;13.93;;;2.25;;
64029;SDS011;50277;52.064;4.492;2022-12-29T07:26:00;12.55;;;2.70;;
64029;SDS011;50277;52.064;4.492;2022-12-29T07:28:26;11.32;;;2.92;;
64029;SDS011;50277;52.064;4.492;2022-12-29T07:30:51;14.85;;;2.90;;
64029;SDS011;50277;52.064;4.492;2022-12-29T07:33:17;16.88;;;2.80;;
64029;SDS011;50277;52.064;4.492;2022-12-29T07:35:42;15.45;;;2.40;;
64029;SDS011;50277;52.064;4.492;2022-12-29T07:38:07;23.48;;;2.78;;
64029;SDS011;50277;52.064;4.492;2022-12-29T07:40:33;17.70;;;4.00;;
64029;SDS011;50277;52.064;4.492;2022-12-29T07:42:58;19.63;;;3.30;;
64029;SDS011;50277;52.064;4.492;2022-12-29T07:45:23;17.17;;;3.65;;
64029;SDS011;50277;52.064;4.492;2022-12-29T07:47:49;13.20;;;3.08;;
64029;SDS011;50277;52.064;4.492;2022-12-29T07:50:14;15.07;;;3.10;;
64029;SDS011;50277;52.064;4.492;2022-12-29T07:52:39;19.33;;;3.08;;
64029;SDS011;50277;52.064;4.492;2022-12-29T07:55:05;18.75;;;3.03;;
64029;SDS011;50277;52.064;4.492;2022-12-29T07:57:31;21.83;;;3.65;;
64029;SDS011;50277;52.064;4.492;2022-12-29T07:59:56;16.33;;;3.35;;
64029;SDS011;50277;52.064;4.492;2022-12-29T08:02:21;18.27;;;3.13;;
64029;SDS011;50277;52.064;4.492;2022-12-29T08:04:47;25.13;;;3.15;;
64029;SDS011;50277;52.064;4.492;2022-12-29T08:07:12;23.27;;;3.35;;
64029;SDS011;50277;52.064;4.492;2022-12-29T08:09:37;26.80;;;3.88;;
64029;SDS011;50277;52.064;4.492;2022-12-29T08:12:03;17.73;;;3.10;;
64029;SDS011;50277;52.064;4.492;2022-12-29T08:14:28;17.27;;;4.30;;
64029;SDS011;50277;52.064;4.492;2022-12-29T08:16:53;18.20;;;3.85;;
64029;SDS011;50277;52.064;4.492;2022-12-29T08:19:19;15.30;;;3.45;;
64029;SDS011;50277;52.064;4.492;2022-12-29T08:21:44;20.75;;;3.83;;
64029;SDS011;50277;52.064;4.492;2022-12-29T08:24:09;15.75;;;3.92;;
64029;SDS011;50277;52.064;4.492;2022-12-29T08:26:35;19.70;;;3.67;;
64029;SDS011;50277;52.064;4.492;2022-12-29T08:29:00;20.25;;;4.18;;
64029;SDS011;50277;52.064;4.492;2022-12-29T08:31:26;19.77;;;3.63;;
64029;SDS011;50277;52.064;4.492;2022-12-29T08:33:51;14.13;;;3.20;;
64029;SDS011;50277;52.064;4.492;2022-12-29T08:36:16;18.95;;;3.08;;
64029;SDS011;50277;52.064;4.492;2022-12-29T08:38:42;24.55;;;3.75;;
64029;SDS011;50277;52.064;4.492;2022-12-29T08:41:07;14.40;;;3.50;;
64029;SDS011;50277;52.064;4.492;2022-12-29T08:43:32;21.42;;;3.72;;
64029;SDS011;50277;52.064;4.492;2022-12-29T08:45:58;19.17;;;3.17;;
64029;SDS011;50277;52.064;4.492;2022-12-29T08:48:24;24.52;;;3.45;;
64029;SDS011;50277;52.064;4.492;2022-12-29T08:50:50;16.10;;;3.78;;
64029;SDS011;50277;52.064;4.492;2022-12-29T08:53:15;22.13;;;3.35;;
64029;SDS011;50277;52.064;4.492;2022-12-29T08:55:44;23.00;;;3.63;;
64029;SDS011;50277;52.064;4.492;2022-12-29T08:58:13;13.43;;;3.17;;
64029;SDS011;50277;52.064;4.492;2022-12-29T09:00:40;24.15;;;3.35;;
64029;SDS011;50277;52.064;4.492;2022-12-29T09:03:05;22.67;;;4.35;;
64029;SDS011;50277;52.064;4.492;2022-12-29T09:05:31;15.52;;;3.47;;
64029;SDS011;50277;52.064;4.492;2022-12-29T09:07:56;21.38;;;3.83;;
64029;SDS011;50277;52.064;4.492;2022-12-29T09:10:21;11.77;;;2.80;;
64029;SDS011;50277;52.064;4.492;2022-12-29T09:12:47;20.27;;;3.38;;
64029;SDS011;50277;52.064;4.492;2022-12-29T09:15:12;16.77;;;2.85;;
64029;SDS011;50277;52.064;4.492;2022-12-29T09:17:37;21.00;;;4.07;;
64029;SDS011;50277;52.064;4.492;2022-12-29T09:20:07;11.43;;;2.38;;
64029;SDS011;50277;52.064;4.492;2022-12-29T09:22:33;17.02;;;3.25;;
64029;SDS011;50277;52.064;4.492;2022-12-29T09:24:59;18.33;;;3.75;;
64029;SDS011;50277;52.064;4.492;2022-12-29T09:27:24;21.20;;;3.22;;
64029;SDS011;50277;52.064;4.492;2022-12-29T09:29:50;22.70;;;4.40;;
64029;SDS011;50277;52.064;4.492;2022-12-29T09:32:15;15.45;;;2.92;;
64029;SDS011;50277;52.064;4.492;2022-12-29T09:34:40;20.90;;;3.92;;
64029;SDS011;50277;52.064;4.492;2022-12-29T09:37:06;26.45;;;4.25;;
64029;SDS011;50277;52.064;4.492;2022-12-29T09:39:31;24.83;;;4.30;;
64029;SDS011;50277;52.064;4.492;2022-12-29T09:42:01;16.98;;;3.28;;
64029;SDS011;50277;52.064;4.492;2022-12-29T09:47:14;23.08;;;3.63;;
64029;SDS011;50277;52.064;4.492;2022-12-29T09:49:46;22.30;;;3.85;;
64029;SDS011;50277;52.064;4.492;2022-12-29T09:52:18;26.60;;;4.47;;
64029;SDS011;50277;52.064;4.492;2022-12-29T10:00:36;37.85;;;4.95;;
64029;SDS011;50277;52.064;4.492;2022-12-29T10:03:11;23.77;;;3.85;;
64029;SDS011;50277;52.064;4.492;2022-12-29T10:11:50;25.50;;;4.40;;
64029;SDS011;50277;52.064;4.492;2022-12-29T10:16:35;29.35;;;5.32;;
64029;SDS011;50277;52.064;4.492;2022-12-29T10:25:08;26.25;;;4.85;;
64029;SDS011;50277;52.064;4.492;2022-12-29T10:27:38;29.55;;;5.63;;
64029;SDS011;50277;52.064;4.492;2022-12-29T10:30:04;37.33;;;5.28;;
64029;SDS011;50277;52.064;4.492;2022-12-29T10:32:32;30.90;;;5.05;;
64029;SDS011;50277;52.064;4.492;2022-12-29T10:35:15;30.05;;;4.57;;
64029;SDS011;50277;52.064;4.492;2022-12-29T10:37:46;28.98;;;5.20;;
64029;SDS011;50277;52.064;4.492;2022-12-29T10:40:27;31.15;;;4.65;;
64029;SDS011;50277;52.064;4.492;2022-12-29T10:43:28;31.92;;;4.63;;
64029;SDS011;50277;52.064;4.492;2022-12-29T10:45:55;19.33;;;3.90;;
64029;SDS011;50277;52.064;4.492;2022-12-29T10:48:24;22.75;;;4.00;;
64029;SDS011;50277;52.064;4.492;2022-12-29T10:50:52;25.05;;;4.75;;
64029;SDS011;50277;52.064;4.492;2022-12-29T10:53:22;13.73;;;3.58;;
64029;SDS011;50277;52.064;4.492;2022-12-29T10:55:50;26.00;;;5.13;;
64029;SDS011;50277;52.064;4.492;2022-12-29T10:58:15;21.63;;;4.57;;
64029;SDS011;50277;52.064;4.492;2022-12-29T11:00:41;28.75;;;4.85;;
64029;SDS011;50277;52.064;4.492;2022-12-29T11:08:37;33.75;;;5.53;;
64029;SDS011;50277;52.064;4.492;2022-12-29T11:11:25;25.38;;;3.83;;
64029;SDS011;50277;52.064;4.492;2022-12-29T11:13:56;16.30;;;4.10;;
64029;SDS011;50277;52.064;4.492;2022-12-29T11:16:41;27.45;;;5.15;;
64029;SDS011;50277;52.064;4.492;2022-12-29T11:19:22;19.23;;;3.30;;
64029;SDS011;50277;52.064;4.492;2022-12-29T11:21:48;19.10;;;3.45;;
64029;SDS011;50277;52.064;4.492;2022-12-29T11:24:24;17.70;;;4.65;;
64029;SDS011;50277;52.064;4.492;2022-12-29T11:26:54;19.08;;;3.80;;
64029;SDS011;50277;52.064;4.492;2022-12-29T11:29:25;21.95;;;3.38;;
64029;SDS011;50277;52.064;4.492;2022-12-29T11:31:56;13.05;;;2.75;;
64029;SDS011;50277;52.064;4.492;2022-12-29T11:36:50;15.85;;;3.50;;
64029;SDS011;50277;52.064;4.492;2022-12-29T11:39:23;16.15;;;3.00;;
64029;SDS011;50277;52.064;4.492;2022-12-29T11:41:51;17.35;;;3.40;;
64029;SDS011;50277;52.064;4.492;2022-12-29T11:44:17;19.65;;;3.35;;
64029;SDS011;50277;52.064;4.492;2022-12-29T11:46:44;18.83;;;3.67;;
64029;SDS011;50277;52.064;4.492;2022-12-29T11:49:18;18.05;;;2.97;;
64029;SDS011;50277;52.064;4.492;2022-12-29T11:51:45;19.58;;;3.28;;
64029;SDS011;50277;52.064;4.492;2022-12-29T11:54:19;10.35;;;2.88;;
64029;SDS011;50277;52.064;4.492;2022-12-29T11:56:49;15.15;;;3.15;;
64029;SDS011;50277;52.064;4.492;2022-12-29T12:01:52;11.95;;;2.75;;
64029;SDS011;50277;52.064;4.492;2022-12-29T12:04:19;12.95;;;3.08;;
64029;SDS011;50277;52.064;4.492;2022-12-29T12:09:37;17.92;;;2.83;;
64029;SDS011;50277;52.064;4.492;2022-12-29T12:12:33;12.32;;;2.70;;
64029;SDS011;50277;52.064;4.492;2022-12-29T12:15:03;14.98;;;2.55;;
64029;SDS011;50277;52.064;4.492;2022-12-29T12:17:30;20.73;;;3.75;;
64029;SDS011;50277;52.064;4.492;2022-12-29T12:20:05;20.30;;;3.72;;
64029;SDS011;50277;52.064;4.492;2022-12-29T12:22:38;23.30;;;3.42;;
64029;SDS011;50277;52.064;4.492;2022-12-29T12:25:18;29.95;;;4.13;;
64029;SDS011;50277;52.064;4.492;2022-12-29T12:30:46;16.23;;;3.38;;
64029;SDS011;50277;52.064;4.492;2022-12-29T12:38:53;16.30;;;2.88;;
64029;SDS011;50277;52.064;4.492;2022-12-29T12:44:10;8.77;;;2.30;;
64029;SDS011;50277;52.064;4.492;2022-12-29T12:46:56;9.65;;;2.22;;
64029;SDS011;50277;52.064;4.492;2022-12-29T13:01:02;16.13;;;2.60;;
64029;SDS011;50277;52.064;4.492;2022-12-29T13:06:22;11.63;;;2.85;;
64029;SDS011;50277;52.064;4.492;2022-12-29T13:09:03;16.60;;;2.90;;
64029;SDS011;50277;52.064;4.492;2022-12-29T13:14:30;12.32;;;3.00;;
64029;SDS011;50277;52.064;4.492;2022-12-29T13:19:38;14.43;;;3.25;;
64029;SDS011;50277;52.064;4.492;2022-12-29T13:22:47;11.65;;;2.70;;
64029;SDS011;50277;52.064;4.492;2022-12-29T13:28:35;18.65;;;3.20;;
64029;SDS011;50277;52.064;4.492;2022-12-29T13:36:43;25.77;;;3.75;;
64029;SDS011;50277;52.064;4.492;2022-12-29T13:39:22;19.95;;;3.72;;
64029;SDS011;50277;52.064;4.492;2022-12-29T13:44:26;20.05;;;3.38;;
64029;SDS011;50277;52.064;4.492;2022-12-29T13:46:55;14.65;;;2.78;;
64029;SDS011;50277;52.064;4.492;2022-12-29T13:49:30;13.05;;;3.10;;
64029;SDS011;50277;52.064;4.492;2022-12-29T14:00:25;10.35;;;2.05;;
64029;SDS011;50277;52.064;4.492;2022-12-29T14:03:09;12.73;;;2.47;;
64029;SDS011;50277;52.064;4.492;2022-12-29T14:05:44;10.95;;;2.40;;
64029;SDS011;50277;52.064;4.492;2022-12-29T14:08:35;11.95;;;2.35;;
64029;SDS011;50277;52.064;4.492;2022-12-29T14:11:05;11.40;;;2.25;;
64029;SDS011;50277;52.064;4.492;2022-12-29T14:13:57;16.73;;;3.03;;
64029;SDS011;50277;52.064;4.492;2022-12-29T14:16:32;16.58;;;2.70;;
64029;SDS011;50277;52.064;4.492;2022-12-29T14:19:08;11.63;;;3.17;;
64029;SDS011;50277;52.064;4.492;2022-12-29T14:21:49;12.35;;;2.97;;
64029;SDS011;50277;52.064;4.492;2022-12-29T14:26:58;10.70;;;2.40;;
64029;SDS011;50277;52.064;4.492;2022-12-29T14:35:02;18.45;;;2.25;;
64029;SDS011;50277;52.064;4.492;2022-12-29T14:38:07;14.85;;;2.50;;
64029;SDS011;50277;52.064;4.492;2022-12-29T14:41:16;13.38;;;2.70;;
64029;SDS011;50277;52.064;4.492;2022-12-29T14:43:54;14.32;;;2.40;;
64029;SDS011;50277;52.064;4.492;2022-12-29T14:46:45;18.30;;;2.85;;
64029;SDS011;50277;52.064;4.492;2022-12-29T14:49:18;11.18;;;2.70;;
64029;SDS011;50277;52.064;4.492;2022-12-29T14:51:54;12.98;;;2.50;;
64029;SDS011;50277;52.064;4.492;2022-12-29T15:00:15;14.10;;;3.00;;
64029;SDS011;50277;52.064;4.492;2022-12-29T15:03:12;17.33;;;2.92;;
64029;SDS011;50277;52.064;4.492;2022-12-29T15:08:50;15.15;;;2.92;;
64029;SDS011;50277;52.064;4.492;2022-12-29T15:14:53;17.38;;;3.03;;
64029;SDS011;50277;52.064;4.492;2022-12-29T15:17:30;15.75;;;3.05;;
64029;SDS011;50277;52.064;4.492;2022-12-29T15:23:04;18.65;;;3.53;;
64029;SDS011;50277;52.064;4.492;2022-12-29T15:25:35;14.15;;;2.67;;
64029;SDS011;50277;52.064;4.492;2022-12-29T15:28:03;13.75;;;2.60;;
64029;SDS011;50277;52.064;4.492;2022-12-29T15:30:32;16.17;;;2.83;;
64029;SDS011;50277;52.064;4.492;2022-12-29T15:33:16;17.88;;;3.00;;
64029;SDS011;50277;52.064;4.492;2022-12-29T15:35:50;13.70;;;2.75;;
64029;SDS011;50277;52.064;4.492;2022-12-29T15:38:31;16.27;;;2.67;;
64029;SDS011;50277;52.064;4.492;2022-12-29T15:41:40;17.48;;;3.10;;
64029;SDS011;50277;52.064;4.492;2022-12-29T15:44:26;12.00;;;2.45;;
64029;SDS011;50277;52.064;4.492;2022-12-29T15:47:06;17.48;;;3.63;;
64029;SDS011;50277;52.064;4.492;2022-12-29T15:49:42;15.88;;;3.10;;
64029;SDS011;50277;52.064;4.492;2022-12-29T15:52:18;18.15;;;2.75;;
64029;SDS011;50277;52.064;4.492;2022-12-29T15:54:46;21.17;;;3.75;;
64029;SDS011;50277;52.064;4.492;2022-12-29T15:57:24;24.92;;;4.15;;
64029;SDS011;50277;52.064;4.492;2022-12-29T16:00:01;15.60;;;3.05;;
64029;SDS011;50277;52.064;4.492;2022-12-29T16:02:28;18.20;;;2.58;;
64029;SDS011;50277;52.064;4.492;2022-12-29T16:04:54;7.30;;;2.20;;
64029;SDS011;50277;52.064;4.492;2022-12-29T16:07:30;12.75;;;3.33;;
64029;SDS011;50277;52.064;4.492;2022-12-29T16:09:57;16.15;;;2.42;;
64029;SDS011;50277;52.064;4.492;2022-12-29T16:12:26;9.85;;;2.45;;
64029;SDS011;50277;52.064;4.492;2022-12-29T16:14:56;15.10;;;3.40;;
64029;SDS011;50277;52.064;4.492;2022-12-29T16:17:29;13.43;;;2.72;;
64029;SDS011;50277;52.064;4.492;2022-12-29T16:19:57;14.13;;;2.75;;
64029;SDS011;50277;52.064;4.492;2022-12-29T16:22:35;11.40;;;2.60;;
64029;SDS011;50277;52.064;4.492;2022-12-29T16:25:13;14.00;;;2.38;;
64029;SDS011;50277;52.064;4.492;2022-12-29T16:27:43;12.75;;;2.97;;
64029;SDS011;50277;52.064;4.492;2022-12-29T16:30:22;16.45;;;3.17;;
64029;SDS011;50277;52.064;4.492;2022-12-29T16:32:50;13.60;;;3.78;;
64029;SDS011;50277;52.064;4.492;2022-12-29T16:37:49;17.63;;;2.88;;
64029;SDS011;50277;52.064;4.492;2022-12-29T16:40:56;16.83;;;2.92;;
64029;SDS011;50277;52.064;4.492;2022-12-29T16:43:23;13.23;;;3.15;;
64029;SDS011;50277;52.064;4.492;2022-12-29T16:50:45;17.65;;;3.53;;
64029;SDS011;50277;52.064;4.492;2022-12-29T16:53:21;13.38;;;2.65;;
64029;SDS011;50277;52.064;4.492;2022-12-29T16:55:49;18.10;;;3.05;;
64029;SDS011;50277;52.064;4.492;2022-12-29T16:58:18;28.13;;;4.15;;
64029;SDS011;50277;52.064;4.492;2022-12-29T17:00:47;17.45;;;3.00;;
64029;SDS011;50277;52.064;4.492;2022-12-29T17:03:13;18.00;;;3.40;;
64029;SDS011;50277;52.064;4.492;2022-12-29T17:05:38;18.73;;;3.33;;
64029;SDS011;50277;52.064;4.492;2022-12-29T17:08:13;14.35;;;3.13;;
64029;SDS011;50277;52.064;4.492;2022-12-29T17:10:47;11.60;;;2.65;;
64029;SDS011;50277;52.064;4.492;2022-12-29T17:13:34;16.42;;;2.95;;
64029;SDS011;50277;52.064;4.492;2022-12-29T17:16:00;10.43;;;2.83;;
64029;SDS011;50277;52.064;4.492;2022-12-29T17:18:25;12.15;;;2.55;;
64029;SDS011;50277;52.064;4.492;2022-12-29T17:20:50;13.50;;;3.00;;
64029;SDS011;50277;52.064;4.492;2022-12-29T17:23:16;15.75;;;3.03;;
64029;SDS011;50277;52.064;4.492;2022-12-29T17:25:41;10.85;;;2.92;;